Time;durP1;ratioP1;P1;durP2;ratioP2;P2;SDS_P1;SDS_P2;PMS_P1;PMS_P2;Temp;Humidity;BMP_temperature;BMP_pressure;BME280_temperature;BME280_humidity;BME280_pressure;Samples;Min_cycle;Max_cycle;Signal;HPM_P1;HPM_P2
2020/12/06 00:01:05;;;;;;;13.87;8.10;;;4.10;99.90;;;;;;4071122;29;20172;-94
2020/12/06 00:03:06;;;;;;;21.13;8.90;;;4.10;99.90;;;;;;4071149;29;20187;-93
2020/12/06 00:05:07;;;;;;;14.50;8.07;;;4.10;99.90;;;;;;4070756;29;20208;-95
2020/12/06 00:07:08;;;;;;;11.47;7.40;;;3.60;99.90;;;;;;4087225;29;20270;-94
2020/12/06 00:09:10;;;;;;;12.63;7.60;;;3.50;99.90;;;;;;4086712;29;20293;-94
2020/12/06 00:11:14;;;;;;;10.67;7.03;;;3.30;99.90;;;;;;4086633;29;20184;-94
2020/12/06 00:13:14;;;;;;;12.73;7.33;;;3.20;99.90;;;;;;4086702;29;20175;-94
2020/12/06 00:15:15;;;;;;;13.13;6.87;;;3.10;99.90;;;;;;4070842;29;20175;-95
2020/12/06 00:17:16;;;;;;;12.33;6.87;;;3.10;99.90;;;;;;4070941;29;20177;-94
2020/12/06 00:19:17;;;;;;;12.07;6.50;;;3.10;99.90;;;;;;4086501;29;20674;-93
2020/12/06 00:21:20;;;;;;;14.77;7.33;;;3.10;99.90;;;;;;4086680;29;20176;-93
2020/12/06 00:23:21;;;;;;;10.07;6.97;;;3.10;99.90;;;;;;4086667;29;20210;-93
2020/12/06 00:25:21;;;;;;;12.60;6.90;;;3.10;99.90;;;;;;4085997;28;20211;-93
2020/12/06 00:27:22;;;;;;;12.80;7.03;;;3.10;99.90;;;;;;4070750;29;20584;-95
2020/12/06 00:29:23;;;;;;;10.87;6.47;;;3.20;99.90;;;;;;4086432;29;20199;-93
2020/12/06 00:31:23;;;;;;;13.00;7.00;;;3.20;99.90;;;;;;4086667;29;20171;-94
2020/12/06 00:33:24;;;;;;;10.47;6.60;;;3.20;99.90;;;;;;4070586;29;20176;-94
2020/12/06 00:35:25;;;;;;;12.10;6.43;;;3.10;99.90;;;;;;4086373;29;20277;-94
2020/12/06 00:37:26;;;;;;;13.13;6.20;;;3.10;99.90;;;;;;4086405;29;20238;-94
2020/12/06 00:39:26;;;;;;;11.50;6.80;;;3.10;99.90;;;;;;4086118;29;20238;-94
2020/12/06 00:41:27;;;;;;;12.53;6.63;;;3.10;99.90;;;;;;4070401;29;20165;-94
2020/12/06 00:43:28;;;;;;;11.60;6.40;;;3.10;99.90;;;;;;4086398;29;20724;-94
2020/12/06 00:45:32;;;;;;;9.93;6.13;;;3.00;99.90;;;;;;4086742;29;20199;-94
2020/12/06 00:47:36;;;;;;;11.73;7.03;;;3.00;99.90;;;;;;4071299;29;20696;-94
2020/12/06 00:49:37;;;;;;;9.73;6.27;;;3.00;99.90;;;;;;4086193;29;20192;-93
2020/12/06 00:51:38;;;;;;;12.67;6.47;;;3.00;99.90;;;;;;4102107;28;20254;-94
2020/12/06 00:53:43;;;;;;;10.23;5.90;;;3.00;99.90;;;;;;4070463;29;20208;-95
2020/12/06 00:55:45;;;;;;;8.13;5.70;;;2.90;99.90;;;;;;4087048;29;20266;-93
2020/12/06 00:57:46;;;;;;;10.10;6.67;;;2.90;99.90;;;;;;4085837;29;20168;-94
2020/12/06 00:59:47;;;;;;;9.37;6.47;;;2.80;99.90;;;;;;4086049;29;20203;-94
2020/12/06 01:01:47;;;;;;;10.23;5.60;;;2.80;99.90;;;;;;4070183;29;20636;-94
2020/12/06 01:03:48;;;;;;;10.43;6.10;;;2.80;99.90;;;;;;4070073;29;20289;-94
2020/12/06 01:05:49;;;;;;;9.93;6.63;;;2.80;99.90;;;;;;4070188;29;20272;-95
2020/12/06 01:07:50;;;;;;;9.30;5.87;;;2.90;99.90;;;;;;4070033;29;20187;-95
2020/12/06 01:09:51;;;;;;;13.53;6.10;;;2.90;99.90;;;;;;4085597;29;20200;-93
2020/12/06 01:11:51;;;;;;;9.43;6.30;;;2.90;99.90;;;;;;4070080;29;20188;-94
2020/12/06 01:13:52;;;;;;;11.20;6.03;;;2.90;99.90;;;;;;4085636;29;20163;-94
2020/12/06 01:15:53;;;;;;;9.70;6.60;;;2.90;99.90;;;;;;4070364;29;20544;-95
2020/12/06 01:17:53;;;;;;;11.60;6.70;;;2.90;99.90;;;;;;4085587;29;20179;-93
2020/12/06 01:19:54;;;;;;;9.73;5.73;;;2.90;99.90;;;;;;4069811;29;20282;-94
2020/12/06 01:21:55;;;;;;;8.57;5.50;;;2.90;99.90;;;;;;4085446;29;20187;-95
2020/12/06 01:23:56;;;;;;;8.77;5.80;;;2.90;99.90;;;;;;4069842;29;20181;-94
2020/12/06 01:25:56;;;;;;;9.63;5.67;;;2.80;99.90;;;;;;4069729;29;20701;-94
2020/12/06 01:27:57;;;;;;;7.93;4.93;;;2.80;99.90;;;;;;4085418;29;20182;-94
2020/12/06 01:29:58;;;;;;;11.73;6.60;;;2.80;99.90;;;;;;4069557;29;20691;-94
2020/12/06 01:31:59;;;;;;;8.97;5.87;;;2.70;99.90;;;;;;4101232;29;20168;-94
2020/12/06 01:33:59;;;;;;;10.27;6.17;;;2.70;99.90;;;;;;4070227;29;20257;-94
2020/12/06 01:36:00;;;;;;;11.63;6.33;;;2.70;99.90;;;;;;4084193;29;20216;-93
2020/12/06 01:38:01;;;;;;;9.07;6.50;;;2.70;99.90;;;;;;4069717;29;20188;-94
2020/12/06 01:40:02;;;;;;;11.27;6.97;;;2.80;99.90;;;;;;4085184;29;20290;-94
2020/12/06 01:42:03;;;;;;;10.60;6.03;;;2.90;99.90;;;;;;4085766;29;20270;-94
2020/12/06 01:44:04;;;;;;;10.80;6.30;;;2.90;99.90;;;;;;4085283;29;20168;-95
2020/12/06 01:46:05;;;;;;;10.60;6.63;;;3.10;99.90;;;;;;4069371;29;20215;-94
2020/12/06 01:48:07;;;;;;;16.20;6.90;;;3.00;99.90;;;;;;4085164;29;20176;-94
2020/12/06 01:50:08;;;;;;;10.53;6.20;;;3.10;99.90;;;;;;4085038;29;20203;-94
2020/12/06 01:52:11;;;;;;;10.33;6.57;;;3.10;99.90;;;;;;4069863;29;20601;-94
2020/12/06 01:54:12;;;;;;;10.50;6.93;;;3.10;99.90;;;;;;4085093;29;20697;-95
2020/12/06 01:56:13;;;;;;;9.90;6.40;;;3.10;99.90;;;;;;4101007;29;20183;-94
2020/12/06 01:58:14;;;;;;;13.17;6.97;;;3.10;99.90;;;;;;4069263;29;20635;-94
2020/12/06 02:00:14;;;;;;;8.80;5.50;;;3.10;99.90;;;;;;4100811;29;20195;-94
2020/12/06 02:02:16;;;;;;;10.13;6.77;;;3.10;99.90;;;;;;4069616;29;20213;-95
2020/12/06 02:04:17;;;;;;;8.73;5.87;;;3.00;99.90;;;;;;4084924;29;20171;-94
2020/12/06 02:06:18;;;;;;;9.17;5.97;;;2.80;99.90;;;;;;4084624;29;20259;-94
2020/12/06 02:08:18;;;;;;;10.33;6.27;;;2.80;99.90;;;;;;4069216;29;20181;-94
2020/12/06 02:10:19;;;;;;;8.03;5.53;;;2.80;99.90;;;;;;4069089;29;20259;-94
2020/12/06 02:12:20;;;;;;;11.80;6.43;;;2.80;99.90;;;;;;4084872;29;20175;-94
2020/12/06 02:14:21;;;;;;;9.17;6.40;;;2.80;99.90;;;;;;4069204;29;20176;-94
2020/12/06 02:16:22;;;;;;;9.53;6.30;;;2.70;99.90;;;;;;4100833;29;20182;-94
2020/12/06 02:18:23;;;;;;;11.57;6.47;;;2.80;99.90;;;;;;4084902;29;20172;-94
2020/12/06 02:20:23;;;;;;;11.43;6.70;;;2.80;99.90;;;;;;4084809;29;20218;-94
2020/12/06 02:22:24;;;;;;;10.37;6.17;;;2.80;99.90;;;;;;4069325;29;20208;-94
2020/12/06 02:24:25;;;;;;;13.73;6.30;;;2.80;99.90;;;;;;4084766;29;20658;-94
2020/12/06 02:26:26;;;;;;;9.73;6.30;;;2.80;99.90;;;;;;4069227;29;20359;-95
2020/12/06 02:28:26;;;;;;;11.13;6.93;;;2.90;99.90;;;;;;4100673;29;20167;-94
2020/12/06 02:30:27;;;;;;;12.03;6.80;;;2.90;99.90;;;;;;4069620;29;20679;-95
2020/12/06 02:32:28;;;;;;;9.87;6.30;;;2.80;99.90;;;;;;4069114;29;20613;-94
2020/12/06 02:34:29;;;;;;;9.30;6.53;;;2.80;99.90;;;;;;4084809;29;20207;-94
2020/12/06 02:36:30;;;;;;;11.10;6.40;;;2.80;99.90;;;;;;4068734;29;20311;-94
2020/12/06 02:38:31;;;;;;;10.60;6.60;;;2.80;99.90;;;;;;4068745;29;20240;-94
2020/12/06 02:40:32;;;;;;;11.30;6.40;;;2.80;99.90;;;;;;4100246;29;20705;-94
2020/12/06 02:42:32;;;;;;;11.13;6.50;;;2.80;99.90;;;;;;4068919;29;20172;-95
2020/12/06 02:44:33;;;;;;;10.17;6.40;;;2.80;99.90;;;;;;4084424;29;20176;-94
2020/12/06 02:46:35;;;;;;;10.63;6.43;;;2.80;99.90;;;;;;4084543;29;20215;-94
2020/12/06 02:48:35;;;;;;;9.53;6.00;;;2.80;99.90;;;;;;4089764;29;20231;-94
2020/12/06 02:50:36;;;;;;;9.93;6.10;;;3.00;99.90;;;;;;4089578;29;20566;-94
2020/12/06 02:52:37;;;;;;;10.83;6.57;;;3.40;99.90;;;;;;4074063;29;20244;-94
2020/12/06 02:54:38;;;;;;;11.00;7.03;;;3.50;99.90;;;;;;4089682;29;20714;-93
2020/12/06 02:56:39;;;;;;;11.70;7.10;;;3.50;99.90;;;;;;4089891;29;20179;-94
2020/12/06 02:58:40;;;;;;;9.90;6.87;;;3.60;99.90;;;;;;4073878;29;20588;-94
2020/12/06 03:00:40;;;;;;;11.23;7.43;;;3.60;99.90;;;;;;4089768;29;20202;-94
2020/12/06 03:02:41;;;;;;;11.30;6.90;;;3.30;99.90;;;;;;4089679;29;20178;-95
2020/12/06 03:04:43;;;;;;;12.23;6.93;;;3.30;99.90;;;;;;4089588;29;20677;-94
2020/12/06 03:06:44;;;;;;;11.77;6.90;;;3.60;99.90;;;;;;4089558;29;20179;-94
2020/12/06 03:08:45;;;;;;;10.73;7.27;;;3.80;99.90;;;;;;4089628;29;20187;-94
2020/12/06 03:10:45;;;;;;;12.57;8.07;;;3.80;99.90;;;;;;4073701;29;20218;-94
2020/12/06 03:12:46;;;;;;;13.63;7.87;;;4.20;99.90;;;;;;4073848;29;20168;-95
2020/12/06 03:14:47;;;;;;;13.87;8.80;;;4.30;99.90;;;;;;4073718;29;20177;-93
2020/12/06 03:16:47;;;;;;;16.97;9.87;;;4.20;99.90;;;;;;4073698;29;20179;-93
2020/12/06 03:18:48;;;;;;;15.63;9.87;;;4.00;99.90;;;;;;4089651;29;20591;-93
2020/12/06 03:20:49;;;;;;;19.33;10.67;;;3.70;99.90;;;;;;4073616;29;20196;-93
2020/12/06 03:22:49;;;;;;;17.93;10.17;;;3.50;99.90;;;;;;4089523;29;20175;-94
2020/12/06 03:24:50;;;;;;;16.70;9.77;;;3.30;99.90;;;;;;4073733;29;20221;-93
2020/12/06 03:26:51;;;;;;;19.33;11.33;;;3.30;99.90;;;;;;4105557;28;20511;-94
2020/12/06 03:28:51;;;;;;;18.87;11.73;;;3.20;99.90;;;;;;4073736;29;20171;-94
2020/12/06 03:30:52;;;;;;;19.13;11.80;;;3.30;99.90;;;;;;4089509;29;20203;-94
2020/12/06 03:32:53;;;;;;;16.90;11.33;;;3.30;99.90;;;;;;4073722;29;20176;-93
2020/12/06 03:34:54;;;;;;;16.90;11.57;;;3.30;99.90;;;;;;4105036;28;20265;-94
2020/12/06 03:36:54;;;;;;;17.93;11.43;;;3.30;99.90;;;;;;4073709;29;20315;-92
2020/12/06 03:38:55;;;;;;;21.17;12.33;;;3.10;99.90;;;;;;4073632;29;20176;-93
2020/12/06 03:40:56;;;;;;;18.37;11.50;;;3.00;99.90;;;;;;4105134;28;20163;-94
2020/12/06 03:42:56;;;;;;;19.30;11.53;;;3.00;99.90;;;;;;4073632;29;20634;-94
2020/12/06 03:44:57;;;;;;;21.50;12.83;;;3.00;99.90;;;;;;4073465;29;20555;-93
2020/12/06 03:46:58;;;;;;;20.17;12.30;;;2.90;99.90;;;;;;4073626;29;20172;-93
2020/12/06 03:48:58;;;;;;;20.30;12.47;;;2.80;99.90;;;;;;4073466;29;20239;-94
2020/12/06 03:50:59;;;;;;;19.63;12.43;;;2.90;99.90;;;;;;4073739;29;20176;-94
2020/12/06 03:53:00;;;;;;;21.60;12.97;;;2.90;99.90;;;;;;4089449;29;20172;-93
2020/12/06 03:55:01;;;;;;;24.30;13.07;;;3.10;99.90;;;;;;4089333;29;20179;-94
2020/12/06 03:57:02;;;;;;;23.63;13.30;;;3.30;99.90;;;;;;4073540;29;20215;-93
2020/12/06 03:59:02;;;;;;;20.30;12.60;;;3.30;99.90;;;;;;4071366;29;20338;-94
2020/12/06 04:01:03;;;;;;;20.30;12.70;;;3.30;99.90;;;;;;4086830;29;20176;-94
2020/12/06 04:03:04;;;;;;;21.53;13.40;;;3.20;99.90;;;;;;4087024;29;20628;-93
2020/12/06 04:05:05;;;;;;;22.37;12.80;;;3.00;99.90;;;;;;4086528;29;20298;-93
2020/12/06 04:07:05;;;;;;;18.60;12.63;;;2.80;99.90;;;;;;4071010;29;20648;-94
2020/12/06 04:09:06;;;;;;;21.70;14.17;;;2.90;99.90;;;;;;4070831;29;20187;-93
2020/12/06 04:11:07;;;;;;;25.30;14.63;;;2.90;99.90;;;;;;4086807;29;20226;-93
2020/12/06 04:13:07;;;;;;;25.23;14.87;;;2.90;99.90;;;;;;4071107;29;20176;-93
2020/12/06 04:15:08;;;;;;;22.60;13.80;;;2.90;99.90;;;;;;4102365;29;20171;-93
2020/12/06 04:17:09;;;;;;;21.33;14.40;;;2.80;99.90;;;;;;4071006;29;20183;-94
2020/12/06 04:19:09;;;;;;;24.03;15.17;;;2.80;99.90;;;;;;4070852;29;20184;-93
2020/12/06 04:21:11;;;;;;;26.67;14.87;;;2.70;99.90;;;;;;4102280;29;20171;-93
2020/12/06 04:23:12;;;;;;;22.80;14.10;;;2.70;99.90;;;;;;4086589;29;20243;-93
2020/12/06 04:25:13;;;;;;;22.13;14.13;;;2.70;99.90;;;;;;4086406;29;20215;-93
2020/12/06 04:27:14;;;;;;;22.47;14.03;;;2.60;99.90;;;;;;4086427;29;20543;-94
2020/12/06 04:29:15;;;;;;;22.17;14.13;;;2.60;99.90;;;;;;4070791;29;20236;-93
2020/12/06 04:31:15;;;;;;;24.40;14.40;;;2.60;99.90;;;;;;4070811;29;20175;-94
2020/12/06 04:33:16;;;;;;;21.27;13.43;;;2.60;99.90;;;;;;4070804;29;20242;-93
2020/12/06 04:35:17;;;;;;;22.47;13.07;;;2.50;99.90;;;;;;4070557;29;20227;-92
2020/12/06 04:37:20;;;;;;;19.57;13.27;;;2.50;99.90;;;;;;4086218;29;20227;-93
2020/12/06 04:39:20;;;;;;;23.43;14.10;;;2.50;99.90;;;;;;4086349;29;20255;-93
2020/12/06 04:41:25;;;;;;;21.20;13.07;;;2.50;99.90;;;;;;4086328;29;20164;-93
2020/12/06 04:43:28;;;;;;;23.23;13.27;;;2.60;99.90;;;;;;4086407;29;20179;-93
2020/12/06 04:45:29;;;;;;;21.97;14.10;;;2.70;99.90;;;;;;4086503;29;20573;-93
2020/12/06 04:47:41;;;;;;;24.63;13.83;;;2.60;99.90;;;;;;4070530;29;20184;-94
2020/12/06 04:49:44;;;;;;;21.57;12.27;;;2.30;99.90;;;;;;4086151;29;20196;-93
2020/12/06 04:51:51;;;;;;;22.70;12.50;;;2.00;99.90;;;;;;4086020;29;20584;-94
2020/12/06 04:54:03;;;;;;;18.57;12.50;;;2.00;99.90;;;;;;4070327;29;20255;-94
2020/12/06 04:56:11;;;;;;;18.57;12.27;;;2.00;99.90;;;;;;4070261;29;20184;-94
2020/12/06 04:58:17;;;;;;;20.50;12.37;;;2.00;99.90;;;;;;4070164;29;20172;-93
2020/12/06 05:00:20;;;;;;;17.77;11.50;;;2.10;99.90;;;;;;4070117;29;20205;-93
2020/12/06 05:02:23;;;;;;;18.27;12.00;;;2.40;99.90;;;;;;4070201;29;20169;-94
2020/12/06 05:04:27;;;;;;;19.87;11.73;;;2.40;99.90;;;;;;4070140;29;20192;-93
2020/12/06 05:06:29;;;;;;;20.40;12.27;;;2.50;99.90;;;;;;4070002;29;20216;-94
2020/12/06 05:08:35;;;;;;;19.47;12.30;;;2.70;99.90;;;;;;4070091;29;20169;-94
2020/12/06 05:10:42;;;;;;;18.07;11.73;;;3.00;99.90;;;;;;4069827;29;20196;-92
2020/12/06 05:12:43;;;;;;;21.23;12.00;;;2.70;99.90;;;;;;4069928;29;20171;-94
2020/12/06 05:14:43;;;;;;;17.33;11.93;;;2.50;99.90;;;;;;4085630;29;20179;-93
2020/12/06 05:16:47;;;;;;;18.37;11.37;;;2.40;99.90;;;;;;4101695;29;20182;-93
2020/12/06 05:18:48;;;;;;;20.03;11.53;;;2.70;99.90;;;;;;4085615;29;20184;-94
2020/12/06 05:20:50;;;;;;;20.90;11.77;;;2.70;99.90;;;;;;4069876;29;20239;-93
2020/12/06 05:22:51;;;;;;;20.67;11.13;;;2.70;99.90;;;;;;4085566;29;20187;-93
2020/12/06 05:24:53;;;;;;;19.67;12.07;;;2.70;99.90;;;;;;4070047;29;20245;-94
2020/12/06 05:26:54;;;;;;;18.27;11.53;;;2.60;99.90;;;;;;4101277;29;20178;-93
2020/12/06 05:28:55;;;;;;;19.47;12.30;;;2.50;99.90;;;;;;4069740;29;20648;-93
2020/12/06 05:31:02;;;;;;;21.97;12.33;;;2.50;99.90;;;;;;4069800;29;20259;-93
2020/12/06 05:33:03;;;;;;;21.80;12.00;;;2.60;99.90;;;;;;4085437;29;20258;-93
2020/12/06 05:35:06;;;;;;;19.63;12.20;;;2.60;99.90;;;;;;4069531;29;20169;-93
2020/12/06 05:37:07;;;;;;;21.13;12.57;;;2.50;99.90;;;;;;4101096;28;20234;-93
2020/12/06 05:39:08;;;;;;;27.57;12.73;;;2.60;99.90;;;;;;4101103;29;20183;-94
2020/12/06 05:41:10;;;;;;;19.93;12.07;;;2.60;99.90;;;;;;4085274;29;20171;-93
2020/12/06 05:43:16;;;;;;;22.53;12.43;;;2.50;99.90;;;;;;4069697;29;20172;-93
2020/12/06 05:45:21;;;;;;;21.53;12.70;;;2.60;99.90;;;;;;4069370;29;20207;-93
2020/12/06 05:47:22;;;;;;;23.60;12.70;;;2.40;99.90;;;;;;4069427;29;20640;-93
2020/12/06 05:49:23;;;;;;;18.57;11.83;;;2.30;99.90;;;;;;4084981;29;20207;-95
2020/12/06 05:51:23;;;;;;;17.03;11.30;;;2.30;99.90;;;;;;4100949;29;20256;-94
2020/12/06 05:53:26;;;;;;;19.87;12.23;;;2.60;99.90;;;;;;4085171;29;20175;-94
2020/12/06 05:55:28;;;;;;;18.47;10.83;;;2.80;99.90;;;;;;4101014;29;20334;-92
2020/12/06 05:57:30;;;;;;;19.33;12.07;;;2.90;99.90;;;;;;4100900;29;20607;-93
2020/12/06 05:59:34;;;;;;;16.93;11.77;;;3.00;99.90;;;;;;4100758;28;20194;-93
2020/12/06 06:01:35;;;;;;;20.37;12.93;;;2.90;99.90;;;;;;4100828;29;20261;-93
2020/12/06 06:03:37;;;;;;;19.43;12.57;;;2.90;99.90;;;;;;4100798;29;20175;-93
2020/12/06 06:05:45;;;;;;;20.57;13.00;;;2.80;99.90;;;;;;4069365;29;20216;-92
2020/12/06 06:07:48;;;;;;;21.13;11.97;;;2.70;99.90;;;;;;4085307;29;20527;-92
2020/12/06 06:10:00;;;;;;;18.47;11.57;;;2.50;99.90;;;;;;4069036;29;20668;-93
2020/12/06 06:12:09;;;;;;;19.93;12.57;;;2.40;99.90;;;;;;4084843;29;20203;-93
2020/12/06 06:14:11;;;;;;;20.07;12.53;;;2.50;99.90;;;;;;4069176;29;20235;-94
2020/12/06 06:16:14;;;;;;;22.43;12.70;;;2.50;99.90;;;;;;4069163;29;20180;-93
2020/12/06 06:18:16;;;;;;;18.27;11.57;;;2.50;99.90;;;;;;4084730;29;20175;-94
2020/12/06 06:20:18;;;;;;;18.53;12.67;;;2.40;99.90;;;;;;4100707;29;20286;-94
2020/12/06 06:22:31;;;;;;;18.17;11.47;;;2.60;99.90;;;;;;4100017;28;20182;-93
2020/12/06 06:24:33;;;;;;;23.20;13.27;;;2.80;99.90;;;;;;4084829;29;20326;-94
2020/12/06 06:26:38;;;;;;;20.60;12.00;;;3.20;99.90;;;;;;4069047;29;20218;-94
2020/12/06 06:28:39;;;;;;;19.57;12.30;;;3.40;99.90;;;;;;4084551;29;20651;-93
2020/12/06 06:30:42;;;;;;;19.90;11.63;;;3.60;99.90;;;;;;4084673;29;20207;-93
2020/12/06 06:32:43;;;;;;;20.07;13.33;;;3.80;99.90;;;;;;4068967;29;20176;-93
2020/12/06 06:34:45;;;;;;;19.43;12.77;;;3.80;99.90;;;;;;4069312;29;20207;-94
2020/12/06 06:36:47;;;;;;;21.47;12.83;;;3.60;99.90;;;;;;4068683;29;20819;-95
2020/12/06 06:38:50;;;;;;;19.53;13.37;;;3.20;99.90;;;;;;4068916;29;20184;-94
2020/12/06 06:40:53;;;;;;;19.47;12.93;;;3.40;99.90;;;;;;4084539;29;20207;-93
2020/12/06 06:42:54;;;;;;;19.53;13.57;;;3.60;99.90;;;;;;4069050;29;20185;-93
2020/12/06 06:45:09;;;;;;;21.87;13.93;;;3.70;99.90;;;;;;4100457;29;20179;-94
2020/12/06 06:47:13;;;;;;;22.07;14.13;;;3.70;99.90;;;;;;4100490;29;20646;-93
2020/12/06 06:49:13;;;;;;;22.87;14.50;;;3.70;99.90;;;;;;4100409;29;20512;-93
2020/12/06 06:51:19;;;;;;;23.87;14.73;;;3.90;99.90;;;;;;4069049;29;20232;-94
2020/12/06 06:53:21;;;;;;;19.63;14.13;;;4.00;99.90;;;;;;4084813;29;20624;-92
2020/12/06 06:55:22;;;;;;;25.93;15.43;;;4.00;99.90;;;;;;4100450;29;20179;-94
2020/12/06 06:57:26;;;;;;;26.80;16.37;;;4.00;99.90;;;;;;4085423;29;20618;-94
2020/12/06 06:59:51;;;;;;;23.87;14.73;;;3.80;99.90;;;;;;4100438;29;20198;-94
2020/12/06 07:01:52;;;;;;;20.60;13.70;;;3.90;99.90;;;;;;4100427;29;20278;-93
2020/12/06 07:03:54;;;;;;;22.90;13.90;;;3.70;99.90;;;;;;4084471;29;20239;-94
2020/12/06 07:05:55;;;;;;;25.20;14.93;;;3.50;99.90;;;;;;4100124;28;20313;-94
2020/12/06 07:07:57;;;;;;;22.20;14.40;;;3.50;99.90;;;;;;4068608;29;20309;-93
2020/12/06 07:09:58;;;;;;;21.03;14.10;;;3.40;99.90;;;;;;4068617;29;20199;-93
2020/12/06 07:12:00;;;;;;;26.00;14.03;;;3.30;99.90;;;;;;4068624;29;20188;-93
2020/12/06 07:14:01;;;;;;;22.20;14.77;;;3.40;99.90;;;;;;4068575;29;20172;-94
2020/12/06 07:16:09;;;;;;;24.67;14.60;;;3.60;99.90;;;;;;4068750;29;20208;-93
2020/12/06 07:18:10;;;;;;;20.97;14.00;;;3.90;99.90;;;;;;4100144;29;20162;-94
2020/12/06 07:20:13;;;;;;;23.43;14.63;;;4.00;99.90;;;;;;4068663;29;20287;-93
2020/12/06 07:22:14;;;;;;;29.10;16.03;;;4.00;99.90;;;;;;4100036;29;20217;-94
2020/12/06 07:24:15;;;;;;;23.93;15.10;;;4.10;99.90;;;;;;4084756;29;20175;-93
2020/12/06 07:26:16;;;;;;;22.67;14.90;;;4.10;99.90;;;;;;4100206;29;20214;-94
2020/12/06 07:28:21;;;;;;;27.60;15.37;;;4.10;99.90;;;;;;4068546;29;20157;-92
2020/12/06 07:30:22;;;;;;;23.00;14.90;;;3.60;99.90;;;;;;4100021;29;20298;-93
2020/12/06 07:32:22;;;;;;;21.30;14.47;;;3.50;99.90;;;;;;4068528;29;20176;-93
2020/12/06 07:34:23;;;;;;;19.07;12.73;;;3.00;99.90;;;;;;4084899;29;20175;-93
2020/12/06 07:36:24;;;;;;;19.90;12.90;;;2.60;99.90;;;;;;4071488;29;20228;-94
2020/12/06 07:38:25;;;;;;;21.00;12.30;;;2.60;99.90;;;;;;4071303;29;20172;-93
2020/12/06 07:40:26;;;;;;;19.27;12.27;;;2.60;99.90;;;;;;4087092;29;20255;-93
2020/12/06 07:42:27;;;;;;;19.23;12.10;;;2.80;99.90;;;;;;4087179;29;20203;-93
2020/12/06 07:44:28;;;;;;;16.60;11.33;;;2.80;99.90;;;;;;4102854;29;20182;-94
2020/12/06 07:46:29;;;;;;;19.07;12.03;;;2.30;99.90;;;;;;4071401;29;20607;-93
2020/12/06 07:48:29;;;;;;;16.60;11.73;;;2.60;99.90;;;;;;4071104;29;20172;-94
2020/12/06 07:50:30;;;;;;;16.90;10.90;;;2.80;99.90;;;;;;4071194;29;20228;-93
2020/12/06 07:52:33;;;;;;;20.13;12.57;;;3.00;99.90;;;;;;4071198;29;20219;-95
2020/12/06 07:54:34;;;;;;;18.70;12.07;;;3.00;99.90;;;;;;4071339;29;20169;-92
2020/12/06 07:56:35;;;;;;;16.27;11.57;;;3.10;99.90;;;;;;4086923;29;20203;-93
2020/12/06 07:58:42;;;;;;;18.50;12.27;;;3.00;99.90;;;;;;4071061;29;20225;-94
2020/12/06 08:00:43;;;;;;;20.63;11.90;;;3.40;99.90;;;;;;4086769;29;20207;-92
2020/12/06 08:02:47;;;;;;;21.07;11.47;;;3.50;99.90;;;;;;4071052;29;20239;-93
2020/12/06 08:04:50;;;;;;;19.20;12.30;;;2.70;99.90;;;;;;4086744;29;20661;-93
2020/12/06 08:06:53;;;;;;;19.17;12.73;;;3.10;99.90;;;;;;4086740;29;20189;-93
2020/12/06 08:08:59;;;;;;;21.30;11.93;;;3.00;99.90;;;;;;4102518;29;20230;-93
2020/12/06 08:11:02;;;;;;;16.97;11.37;;;3.00;99.90;;;;;;4086779;29;20172;-94
2020/12/06 08:13:08;;;;;;;19.03;11.93;;;3.30;99.90;;;;;;4086977;29;20220;-95
2020/12/06 08:15:10;;;;;;;20.77;12.23;;;3.60;99.90;;;;;;4086572;29;20542;-94
2020/12/06 08:17:11;;;;;;;22.30;12.93;;;4.00;99.90;;;;;;4086615;29;20270;-93
2020/12/06 08:19:11;;;;;;;20.53;13.07;;;4.20;99.90;;;;;;4086691;29;20183;-94
2020/12/06 08:21:12;;;;;;;24.33;13.93;;;4.20;99.90;;;;;;4070765;29;20204;-93
2020/12/06 08:23:13;;;;;;;24.47;13.07;;;3.80;99.90;;;;;;4071061;29;20195;-94
2020/12/06 08:25:14;;;;;;;18.93;12.77;;;3.50;99.90;;;;;;4086336;29;20222;-93
2020/12/06 08:27:21;;;;;;;19.30;12.47;;;3.30;99.90;;;;;;4086703;29;20171;-93
2020/12/06 08:29:37;;;;;;;22.63;11.93;;;3.10;99.90;;;;;;4086403;29;20206;-93
2020/12/06 08:31:37;;;;;;;18.83;11.97;;;2.90;99.90;;;;;;4086463;29;20172;-93
2020/12/06 08:33:38;;;;;;;20.73;11.63;;;2.90;99.90;;;;;;4086528;29;20171;-94
2020/12/06 08:35:53;;;;;;;16.37;11.57;;;3.40;99.90;;;;;;4070400;29;20184;-93
2020/12/06 08:37:54;;;;;;;18.90;12.00;;;4.20;99.90;;;;;;4086386;29;20192;-93
2020/12/06 08:40:01;;;;;;;16.30;11.87;;;4.40;99.90;;;;;;4070751;29;20695;-93
2020/12/06 08:42:21;;;;;;;21.00;13.00;;;4.50;99.90;;;;;;4086105;29;20229;-93
2020/12/06 08:44:21;;;;;;;20.93;11.10;;;4.20;99.90;;;;;;4086316;29;20163;-93
2020/12/06 08:46:24;;;;;;;18.70;11.00;;;3.80;99.90;;;;;;4085594;29;20217;-94
2020/12/06 08:48:29;;;;;;;17.40;10.97;;;3.50;99.90;;;;;;4086762;29;20164;-93
2020/12/06 08:50:33;;;;;;;15.63;9.80;;;3.50;99.90;;;;;;4086181;29;20199;-94
2020/12/06 08:52:34;;;;;;;15.47;9.83;;;3.40;99.90;;;;;;4086259;29;20179;-93
2020/12/06 08:54:36;;;;;;;18.27;9.83;;;3.30;99.90;;;;;;4102130;29;20226;-93
2020/12/06 08:56:43;;;;;;;21.77;10.60;;;3.20;99.90;;;;;;4086236;29;20639;-93
2020/12/06 08:58:44;;;;;;;15.13;9.87;;;3.20;99.90;;;;;;4085980;29;20650;-93
2020/12/06 09:00:44;;;;;;;16.63;10.00;;;3.30;99.90;;;;;;4086130;29;20192;-94
2020/12/06 09:02:45;;;;;;;14.43;10.07;;;3.30;99.90;;;;;;4070303;29;20172;-93
2020/12/06 09:04:46;;;;;;;16.07;10.33;;;3.40;99.90;;;;;;4070212;29;20188;-93
2020/12/06 09:06:47;;;;;;;19.63;12.23;;;3.50;99.90;;;;;;4085672;29;20219;-94
2020/12/06 09:08:48;;;;;;;22.20;14.17;;;4.10;99.90;;;;;;4085790;29;20187;-95
2020/12/06 09:10:48;;;;;;;22.97;15.27;;;4.50;99.90;;;;;;4085611;29;20622;-94
2020/12/06 09:12:49;;;;;;;27.70;18.17;;;4.50;99.90;;;;;;4070036;29;20239;-94
2020/12/06 09:14:50;;;;;;;28.80;18.53;;;4.10;99.90;;;;;;4085683;29;20171;-94
2020/12/06 09:16:51;;;;;;;32.97;20.30;;;3.80;99.90;;;;;;4085653;29;20194;-94
2020/12/06 09:18:52;;;;;;;27.47;18.93;;;3.70;99.90;;;;;;4085686;29;20180;-92
2020/12/06 09:20:52;;;;;;;28.53;18.90;;;3.50;99.90;;;;;;4085591;29;20231;-93
2020/12/06 09:22:53;;;;;;;29.23;18.87;;;3.40;99.90;;;;;;4085687;29;20187;-92
2020/12/06 09:24:54;;;;;;;34.90;20.70;;;3.30;99.90;;;;;;4069782;29;20616;-93
2020/12/06 09:26:55;;;;;;;31.60;20.53;;;3.20;99.90;;;;;;4069723;29;20184;-93
2020/12/06 09:28:55;;;;;;;37.10;21.33;;;3.10;99.90;;;;;;4069827;29;20548;-93
2020/12/06 09:30:56;;;;;;;33.63;20.40;;;3.00;99.90;;;;;;4085693;29;20172;-93
2020/12/06 09:32:57;;;;;;;38.10;25.60;;;2.80;99.90;;;;;;4069827;29;20195;-93
2020/12/06 09:34:57;;;;;;;32.00;20.97;;;2.80;99.90;;;;;;4085124;29;20178;-94
2020/12/06 09:36:58;;;;;;;35.07;20.27;;;3.00;99.90;;;;;;4069848;29;20220;-92
2020/12/06 09:38:59;;;;;;;31.90;18.70;;;2.90;99.90;;;;;;4085198;29;20191;-93
2020/12/06 09:40:59;;;;;;;31.17;18.97;;;3.10;99.90;;;;;;4069815;29;20184;-94
2020/12/06 09:43:03;;;;;;;29.53;18.23;;;3.30;99.90;;;;;;4085498;29;20636;-94
2020/12/06 09:45:04;;;;;;;31.93;18.53;;;3.40;99.90;;;;;;4085672;29;20231;-94
2020/12/06 09:47:05;;;;;;;31.20;19.43;;;3.50;99.90;;;;;;4085218;29;20638;-93
2020/12/06 09:49:05;;;;;;;29.27;18.43;;;3.30;99.90;;;;;;4085345;29;20281;-94
2020/12/06 09:51:08;;;;;;;31.63;19.00;;;3.00;99.90;;;;;;4069476;29;20187;-93
2020/12/06 09:53:09;;;;;;;27.63;18.63;;;3.10;99.90;;;;;;4085228;29;20176;-93
2020/12/06 09:55:09;;;;;;;32.63;19.57;;;3.00;99.90;;;;;;4084995;29;20171;-94
2020/12/06 09:57:10;;;;;;;29.37;19.07;;;3.40;99.90;;;;;;4084253;29;20171;-94
2020/12/06 09:59:11;;;;;;;37.43;18.57;;;3.40;99.90;;;;;;4069063;29;20180;-94
2020/12/06 10:01:11;;;;;;;28.67;18.47;;;3.50;99.90;;;;;;4084918;29;20167;-94
2020/12/06 10:03:12;;;;;;;26.10;17.73;;;3.50;99.90;;;;;;4069279;29;20709;-95
2020/12/06 10:05:13;;;;;;;33.23;19.63;;;3.80;99.90;;;;;;4069102;29;20187;-94
2020/12/06 10:07:14;;;;;;;31.17;19.27;;;3.90;99.90;;;;;;4069230;29;20197;-94
2020/12/06 10:09:14;;;;;;;29.23;18.77;;;3.90;99.90;;;;;;4084931;29;20576;-95
2020/12/06 10:11:15;;;;;;;32.23;20.00;;;4.00;99.90;;;;;;4084783;29;20171;-93
2020/12/06 10:13:16;;;;;;;36.87;19.60;;;4.00;99.90;;;;;;4069340;29;20180;-95
2020/12/06 10:15:16;;;;;;;31.00;20.10;;;3.80;99.90;;;;;;4069064;29;20210;-95
2020/12/06 10:17:17;;;;;;;31.73;19.87;;;4.10;99.90;;;;;;4069249;29;20276;-93
2020/12/06 10:19:18;;;;;;;33.20;20.30;;;4.50;99.90;;;;;;4069199;29;20203;-94
2020/12/06 10:21:19;;;;;;;41.77;21.50;;;4.80;99.90;;;;;;4084902;29;20231;-93
2020/12/06 10:23:19;;;;;;;36.93;21.07;;;5.10;99.90;;;;;;4084789;29;20187;-94
2020/12/06 10:25:20;;;;;;;36.07;21.97;;;5.30;99.90;;;;;;4068941;29;20262;-95
2020/12/06 10:27:22;;;;;;;36.03;22.30;;;5.40;99.90;;;;;;4084674;29;20176;-94
2020/12/06 10:29:23;;;;;;;38.10;22.97;;;5.30;99.90;;;;;;4084523;29;20199;-94